Time;durP1;ratioP1;P1;durP2;ratioP2;P2;SDS_P1;SDS_P2;PMS_P1;PMS_P2;Temp;Humidity;BMP_temperature;BMP_pressure;BME280_temperature;BME280_humidity;BME280_pressure;Samples;Min_cycle;Max_cycle;Signal;HPM_P1;HPM_P2
2021/04/01 00:01:09;;;;;;;19.13;8.60;;;12.80;99.90;;;;;;5080912;28;20448;-62
2021/04/01 00:03:35;;;;;;;13.93;7.10;;;12.80;99.90;;;;;;5104498;28;20445;-62
2021/04/01 00:06:02;;;;;;;15.60;8.03;;;12.80;99.90;;;;;;5090019;28;20462;-63
2021/04/01 00:08:28;;;;;;;14.53;7.43;;;12.80;99.90;;;;;;5088114;28;20462;-62
2021/04/01 00:10:54;;;;;;;16.37;8.03;;;12.80;99.90;;;;;;5072436;28;20453;-62
2021/04/01 00:13:22;;;;;;;15.93;8.37;;;12.80;99.90;;;;;;5081298;28;20947;-62
2021/04/01 00:15:48;;;;;;;15.40;7.60;;;12.80;99.90;;;;;;5084717;28;20527;-62
2021/04/01 00:18:17;;;;;;;14.43;7.53;;;12.80;99.90;;;;;;5072295;28;20571;-62
2021/04/01 00:20:44;;;;;;;16.20;7.73;;;12.70;99.90;;;;;;5095787;28;20525;-63
2021/04/01 00:23:10;;;;;;;16.40;7.30;;;12.70;99.90;;;;;;5090766;28;20876;-62
2021/04/01 00:25:36;;;;;;;15.83;8.20;;;12.70;99.90;;;;;;5096765;28;20452;-62
2021/04/01 00:28:03;;;;;;;16.07;7.73;;;12.70;99.90;;;;;;5092472;28;20464;-62
2021/04/01 00:30:31;;;;;;;15.87;8.20;;;12.70;99.90;;;;;;5108380;28;20817;-61
2021/04/01 00:32:57;;;;;;;18.13;7.80;;;12.70;99.90;;;;;;5078132;28;20490;-62
2021/04/01 00:35:24;;;;;;;15.53;6.90;;;12.70;99.90;;;;;;5080521;28;20461;-61
2021/04/01 00:37:50;;;;;;;15.40;7.30;;;12.70;99.90;;;;;;5091351;28;20542;-62
2021/04/01 00:40:18;;;;;;;13.20;6.40;;;12.70;99.90;;;;;;5084936;28;20596;-62
2021/04/01 00:42:45;;;;;;;15.53;7.37;;;12.70;99.90;;;;;;5082382;28;20966;-62
2021/04/01 00:45:12;;;;;;;14.47;8.00;;;12.70;99.90;;;;;;5085972;28;20451;-62
2021/04/01 00:47:42;;;;;;;16.63;6.70;;;12.70;99.90;;;;;;5078299;28;20588;-62
2021/04/01 00:50:11;;;;;;;15.03;7.53;;;12.60;99.90;;;;;;5057013;28;20520;-61
2021/04/01 00:52:37;;;;;;;17.30;8.17;;;12.60;99.90;;;;;;5073760;28;20465;-61
2021/04/01 00:55:05;;;;;;;15.87;7.67;;;12.60;99.90;;;;;;5091672;28;20453;-62
2021/04/01 00:57:33;;;;;;;13.53;7.70;;;12.60;99.90;;;;;;5090320;28;20890;-62
2021/04/01 01:00:00;;;;;;;16.40;8.10;;;12.50;99.90;;;;;;5109435;28;20452;-62
2021/04/01 01:02:26;;;;;;;18.50;8.40;;;12.50;99.90;;;;;;5112258;28;21028;-62
2021/04/01 01:04:54;;;;;;;14.00;7.43;;;12.40;99.90;;;;;;5076561;28;20526;-62
2021/04/01 01:07:21;;;;;;;18.10;8.47;;;12.40;99.90;;;;;;5087665;28;20454;-62
2021/04/01 01:09:47;;;;;;;14.83;8.00;;;12.40;99.90;;;;;;5092058;28;20533;-62
2021/04/01 01:12:14;;;;;;;18.03;8.40;;;12.40;99.90;;;;;;5076950;28;20459;-62
2021/04/01 01:14:40;;;;;;;18.20;8.10;;;12.40;99.90;;;;;;5071879;28;20451;-62
2021/04/01 01:17:06;;;;;;;15.33;8.27;;;12.40;99.90;;;;;;5083668;28;20858;-61
2021/04/01 01:19:37;;;;;;;14.77;8.30;;;12.30;99.90;;;;;;5091016;28;20950;-62
2021/04/01 01:22:06;;;;;;;19.60;8.90;;;12.30;99.90;;;;;;5079994;28;20451;-61
2021/04/01 01:24:34;;;;;;;16.13;8.53;;;12.40;99.90;;;;;;5070698;28;20454;-61
2021/04/01 01:27:02;;;;;;;17.70;8.60;;;12.30;99.90;;;;;;5088637;28;20434;-62
2021/04/01 01:29:28;;;;;;;17.40;10.00;;;12.30;99.90;;;;;;5093788;28;20452;-62
2021/04/01 01:31:55;;;;;;;16.63;8.60;;;12.30;99.90;;;;;;5077399;28;20834;-62
2021/04/01 01:34:22;;;;;;;16.53;8.63;;;12.30;99.90;;;;;;5076381;28;20525;-61
2021/04/01 01:36:48;;;;;;;17.37;8.60;;;12.40;99.90;;;;;;5083449;28;20604;-61
2021/04/01 01:39:14;;;;;;;16.97;8.80;;;12.40;99.90;;;;;;5094032;28;20456;-61
2021/04/01 01:41:42;;;;;;;15.23;8.77;;;12.40;99.90;;;;;;5094555;28;20503;-61
2021/04/01 01:44:09;;;;;;;17.90;8.83;;;12.40;99.90;;;;;;5095636;28;20504;-61
2021/04/01 01:46:35;;;;;;;15.00;8.30;;;12.40;99.90;;;;;;5087894;28;20458;-62
2021/04/01 01:49:01;;;;;;;16.30;9.13;;;12.40;99.90;;;;;;5095492;28;20456;-61
2021/04/01 01:51:31;;;;;;;23.23;10.07;;;12.50;99.90;;;;;;5093686;28;20454;-62
2021/04/01 01:53:57;;;;;;;17.73;9.63;;;12.50;99.90;;;;;;5095006;28;20873;-61
2021/04/01 01:56:26;;;;;;;17.67;9.77;;;12.50;99.90;;;;;;5094646;28;20446;-61
2021/04/01 01:58:54;;;;;;;18.40;10.43;;;12.50;99.90;;;;;;5074746;28;20924;-62
2021/04/01 02:01:22;;;;;;;20.83;10.90;;;12.50;99.90;;;;;;5099650;28;20442;-61
2021/04/01 02:03:49;;;;;;;22.07;10.97;;;12.50;99.90;;;;;;5111085;28;20487;-61
2021/04/01 02:06:19;;;;;;;17.57;9.87;;;12.50;99.90;;;;;;5115086;28;20445;-61
2021/04/01 02:08:45;;;;;;;17.10;10.50;;;12.50;99.90;;;;;;5096103;28;20477;-62
2021/04/01 02:11:12;;;;;;;18.03;10.17;;;12.60;99.90;;;;;;5094694;28;20445;-62
2021/04/01 02:13:38;;;;;;;18.50;11.17;;;12.50;99.90;;;;;;5078143;28;20455;-62
2021/04/01 02:16:06;;;;;;;19.83;11.40;;;12.60;99.90;;;;;;5079532;28;20552;-61
2021/04/01 02:18:33;;;;;;;20.03;10.27;;;12.60;99.90;;;;;;5076986;28;20543;-62
2021/04/01 02:21:01;;;;;;;20.10;11.33;;;12.50;99.90;;;;;;5074258;28;20443;-61
2021/04/01 02:23:29;;;;;;;19.83;10.17;;;12.60;99.90;;;;;;5089656;28;20585;-62
2021/04/01 02:25:57;;;;;;;25.33;13.13;;;12.60;99.90;;;;;;5094224;28;20450;-62
2021/04/01 02:28:25;;;;;;;20.70;11.63;;;12.60;99.90;;;;;;5079709;28;20695;-62
2021/04/01 02:30:55;;;;;;;22.50;12.40;;;12.60;99.90;;;;;;5075917;28;20451;-62
2021/04/01 02:33:23;;;;;;;21.20;11.93;;;12.60;99.90;;;;;;5093466;28;20454;-62
2021/04/01 02:35:50;;;;;;;19.30;10.13;;;12.50;99.90;;;;;;5093062;28;20533;-61
2021/04/01 02:38:18;;;;;;;20.90;12.70;;;12.50;99.90;;;;;;5073929;28;20990;-62
2021/04/01 02:40:44;;;;;;;25.43;11.70;;;12.50;99.90;;;;;;5072929;28;20451;-61
2021/04/01 02:43:14;;;;;;;19.30;11.10;;;12.50;99.90;;;;;;5093669;28;20605;-62
2021/04/01 02:45:40;;;;;;;19.60;11.73;;;12.50;99.90;;;;;;5094096;28;20993;-62
2021/04/01 02:48:07;;;;;;;20.33;11.40;;;12.50;99.90;;;;;;5079316;28;20450;-62
2021/04/01 02:50:35;;;;;;;20.73;11.33;;;12.50;99.90;;;;;;5093968;28;20453;-61
2021/04/01 02:53:01;;;;;;;19.17;10.87;;;12.50;99.90;;;;;;5094055;28;20491;-62
2021/04/01 02:55:27;;;;;;;22.13;12.47;;;12.40;99.90;;;;;;5093996;28;20451;-62
2021/04/01 02:57:54;;;;;;;18.50;11.67;;;12.40;99.90;;;;;;5093564;28;20482;-61
2021/04/01 03:00:23;;;;;;;22.83;12.43;;;12.40;99.90;;;;;;5090930;28;20515;-61
2021/04/01 03:02:56;;;;;;;20.23;11.57;;;12.40;99.90;;;;;;5073742;28;20469;-62
2021/04/01 03:05:22;;;;;;;21.83;12.57;;;12.40;99.90;;;;;;5089023;28;20454;-61
2021/04/01 03:07:49;;;;;;;22.90;12.73;;;12.40;99.90;;;;;;5078056;28;20459;-62
2021/04/01 03:10:16;;;;;;;20.97;12.83;;;12.50;99.90;;;;;;5093797;28;20530;-62
2021/04/01 03:12:42;;;;;;;19.60;12.30;;;12.50;99.90;;;;;;5086033;28;20582;-62
2021/04/01 03:15:11;;;;;;;24.00;13.13;;;12.60;99.90;;;;;;5073225;28;20937;-62
2021/04/01 03:17:39;;;;;;;22.10;11.77;;;12.60;99.90;;;;;;5073152;28;20483;-62
2021/04/01 03:20:07;;;;;;;21.00;12.37;;;12.60;99.90;;;;;;5078315;28;20877;-61
2021/04/01 03:22:33;;;;;;;23.70;13.20;;;12.60;99.90;;;;;;5092319;28;20442;-62
2021/04/01 03:25:01;;;;;;;21.20;13.47;;;12.60;99.90;;;;;;5092916;28;20493;-62
2021/04/01 03:27:27;;;;;;;22.23;13.10;;;12.60;99.90;;;;;;5078233;28;20538;-62
2021/04/01 03:30:07;;;;;;;23.50;13.40;;;12.60;99.90;;;;;;5073620;28;20459;-62
2021/04/01 03:32:35;;;;;;;28.03;14.87;;;12.70;99.90;;;;;;5074101;28;20985;-62
2021/04/01 03:35:02;;;;;;;25.70;13.83;;;12.70;99.90;;;;;;5086967;28;20462;-62
2021/04/01 03:37:28;;;;;;;24.10;14.37;;;12.80;99.90;;;;;;5111718;28;20477;-62
2021/04/01 03:39:55;;;;;;;28.40;14.13;;;12.80;99.90;;;;;;5108406;28;20447;-62
2021/04/01 03:42:23;;;;;;;23.77;14.60;;;12.90;99.90;;;;;;5093492;28;20960;-62
2021/04/01 03:44:49;;;;;;;26.37;14.43;;;12.90;99.90;;;;;;5093224;28;20529;-62
2021/04/01 03:47:16;;;;;;;28.30;15.53;;;13.00;99.90;;;;;;5092276;28;20458;-61
2021/04/01 03:49:42;;;;;;;29.17;16.13;;;13.00;99.90;;;;;;5093308;28;20516;-62
2021/04/01 03:52:08;;;;;;;28.07;16.13;;;13.00;99.90;;;;;;5082878;28;20453;-61
2021/04/01 03:54:35;;;;;;;29.43;16.23;;;13.00;99.90;;;;;;5072631;28;20873;-62
2021/04/01 03:57:02;;;;;;;29.50;14.73;;;13.00;99.90;;;;;;5072343;28;20446;-62
2021/04/01 03:59:35;;;;;;;28.73;17.10;;;13.00;99.90;;;;;;5072612;28;20496;-61
2021/04/01 04:05:02;;;;;;;26.37;14.43;;;13.10;99.90;;;;;;5073400;28;20451;-62
2021/04/01 04:10:28;;;;;;;27.20;15.97;;;13.10;99.90;;;;;;5073035;28;20459;-62
2021/04/01 04:13:03;;;;;;;27.90;15.80;;;13.10;99.90;;;;;;5092918;28;20465;-62
2021/04/01 04:15:30;;;;;;;26.87;16.07;;;13.10;99.90;;;;;;5088409;28;20485;-62
2021/04/01 04:17:57;;;;;;;23.83;14.90;;;13.10;99.90;;;;;;5108323;28;20584;-62
2021/04/01 04:20:23;;;;;;;28.80;16.70;;;13.10;99.90;;;;;;5090097;28;20453;-61
2021/04/01 04:22:51;;;;;;;30.17;16.80;;;13.10;99.90;;;;;;5089577;28;20477;-62
2021/04/01 04:25:18;;;;;;;27.43;15.30;;;13.10;99.90;;;;;;5101678;28;20937;-62
2021/04/01 04:28:03;;;;;;;28.10;16.87;;;13.10;99.90;;;;;;5092395;28;20536;-62
2021/04/01 04:30:30;;;;;;;27.02;15.70;;;13.00;99.90;;;;;;5092310;28;20795;-62
2021/04/01 04:32:57;;;;;;;25.00;16.20;;;12.90;99.90;;;;;;5091676;28;20193;-61
2021/04/01 04:35:23;;;;;;;31.27;17.07;;;12.90;99.90;;;;;;5092011;28;20454;-61
2021/04/01 04:37:50;;;;;;;29.77;16.90;;;12.90;99.90;;;;;;5087712;28;20518;-62
2021/04/01 04:40:17;;;;;;;32.80;16.47;;;12.90;99.90;;;;;;5078511;28;20449;-62
2021/04/01 04:42:43;;;;;;;29.97;17.17;;;12.80;99.90;;;;;;5072126;28;20852;-63
2021/04/01 04:45:10;;;;;;;29.00;17.23;;;12.90;99.90;;;;;;5074434;28;20457;-64
2021/04/01 04:47:38;;;;;;;30.13;17.57;;;12.90;99.90;;;;;;5091647;28;20454;-63
2021/04/01 04:50:05;;;;;;;34.07;18.33;;;12.90;99.90;;;;;;5090349;28;20529;-63
2021/04/01 04:52:33;;;;;;;34.23;16.93;;;12.90;99.90;;;;;;5072080;28;20454;-64
2021/04/01 04:55:01;;;;;;;31.47;15.93;;;12.90;99.90;;;;;;5085321;28;20815;-63
2021/04/01 04:57:33;;;;;;;29.60;15.73;;;12.90;99.90;;;;;;5072581;28;20552;-64
2021/04/01 05:05:25;;;;;;;28.77;15.97;;;12.80;99.90;;;;;;5079716;28;20453;-64
2021/04/01 05:07:51;;;;;;;30.00;16.30;;;12.60;99.90;;;;;;5075633;28;20608;-63
2021/04/01 05:10:18;;;;;;;29.10;16.60;;;12.50;99.90;;;;;;5084726;28;20534;-64
2021/04/01 05:12:47;;;;;;;29.57;17.13;;;12.40;99.90;;;;;;5085749;28;20480;-63
2021/04/01 05:15:14;;;;;;;31.33;15.87;;;12.30;99.90;;;;;;5096053;28;20450;-63
2021/04/01 05:17:41;;;;;;;30.70;17.50;;;12.20;99.90;;;;;;5095677;28;20481;-63
2021/04/01 05:20:09;;;;;;;34.10;18.10;;;12.10;99.90;;;;;;5095880;28;20474;-63
2021/04/01 05:22:40;;;;;;;35.03;17.67;;;12.10;99.90;;;;;;5095965;28;20533;-64
2021/04/01 05:25:09;;;;;;;35.70;16.77;;;12.00;99.90;;;;;;5095601;28;20450;-64
2021/04/01 05:27:39;;;;;;;45.83;18.80;;;12.00;99.90;;;;;;5093908;28;20462;-63
2021/04/01 05:30:07;;;;;;;38.40;19.40;;;11.90;99.90;;;;;;5095653;28;20472;-64
2021/04/01 05:32:36;;;;;;;33.80;18.33;;;11.80;99.90;;;;;;5095746;28;20533;-63
2021/04/01 05:35:07;;;;;;;34.80;17.20;;;11.80;99.90;;;;;;5095400;28;20536;-63
2021/04/01 05:37:33;;;;;;;36.00;20.37;;;11.70;99.90;;;;;;5093013;28;20510;-64
2021/04/01 05:40:00;;;;;;;38.43;19.47;;;11.70;99.90;;;;;;5075478;28;20438;-63
2021/04/01 05:42:32;;;;;;;36.77;18.93;;;11.60;99.90;;;;;;5074922;28;20447;-63
2021/04/01 05:45:03;;;;;;;40.00;19.33;;;11.70;99.90;;;;;;5076419;28;20474;-64
2021/04/01 05:47:34;;;;;;;38.07;20.70;;;11.70;99.90;;;;;;5091730;28;20457;-63
2021/04/01 05:50:14;;;;;;;37.30;20.20;;;11.80;99.90;;;;;;5111416;28;20812;-64
2021/04/01 05:53:17;;;;;;;39.00;20.97;;;11.80;99.90;;;;;;5093268;28;20537;-64
2021/04/01 06:01:41;;;;;;;37.97;19.40;;;12.00;99.90;;;;;;5101261;28;20826;-66
2021/04/01 06:04:21;;;;;;;36.10;18.80;;;12.10;99.90;;;;;;5104517;28;20811;-64
2021/04/01 06:06:53;;;;;;;41.00;20.33;;;12.30;99.90;;;;;;5100322;28;20453;-63
2021/04/01 06:09:23;;;;;;;35.80;19.90;;;12.30;99.90;;;;;;5104600;28;20441;-68
2021/04/01 06:11:52;;;;;;;32.37;18.00;;;12.40;99.90;;;;;;5108203;28;21202;-66
2021/04/01 06:14:31;;;;;;;38.40;20.80;;;12.40;99.90;;;;;;5099461;28;20936;-64
2021/04/01 06:16:58;;;;;;;32.70;19.67;;;12.40;99.90;;;;;;5098864;28;20445;-64
2021/04/01 06:19:31;;;;;;;37.97;20.97;;;12.50;99.90;;;;;;5104009;28;21007;-65
2021/04/01 06:22:03;;;;;;;43.60;22.10;;;12.50;99.90;;;;;;5102439;28;20486;-64
2021/04/01 06:24:30;;;;;;;54.27;22.20;;;12.50;99.90;;;;;;5106190;28;20532;-64
2021/04/01 06:27:02;;;;;;;40.80;22.27;;;12.50;99.90;;;;;;5105713;28;20469;-65
2021/04/01 06:29:31;;;;;;;45.40;22.10;;;12.50;99.90;;;;;;5104782;28;20456;-65
2021/04/01 06:32:00;;;;;;;37.57;22.37;;;12.60;99.90;;;;;;5098389;28;20442;-64
2021/04/01 06:34:36;;;;;;;40.53;23.23;;;12.60;99.90;;;;;;5106388;28;20449;-65
2021/04/01 06:37:04;;;;;;;41.73;21.43;;;12.70;99.90;;;;;;5105540;28;20449;-64
2021/04/01 06:39:31;;;;;;;39.10;22.73;;;12.70;99.90;;;;;;5090678;28;20482;-65
2021/04/01 06:42:05;;;;;;;40.97;20.67;;;12.80;99.90;;;;;;5099069;28;20437;-64
2021/04/01 06:44:39;;;;;;;42.93;21.90;;;12.90;99.90;;;;;;5089253;28;20457;-64
2021/04/01 06:47:11;;;;;;;38.23;20.43;;;13.00;99.90;;;;;;5108195;28;20854;-64
2021/04/01 06:49:59;;;;;;;42.43;22.30;;;13.10;99.90;;;;;;5095040;28;20464;-65
2021/04/01 06:52:33;;;;;;;40.20;21.83;;;13.30;99.90;;;;;;5101993;28;20476;-67
2021/04/01 06:55:07;;;;;;;48.80;25.90;;;13.40;99.90;;;;;;5103798;28;20457;-63
2021/04/01 06:57:46;;;;;;;45.20;24.47;;;13.60;99.90;;;;;;5102846;28;20452;-64
2021/04/01 07:03:02;;;;;;;48.07;26.13;;;13.90;99.90;;;;;;5109346;28;20478;-65
2021/04/01 07:05:42;;;;;;;50.30;26.60;;;14.10;99.90;;;;;;5093479;28;20441;-66
2021/04/01 07:08:12;;;;;;;54.77;30.33;;;14.30;99.90;;;;;;5104010;28;20450;-64
2021/04/01 07:10:50;;;;;;;54.07;29.87;;;14.40;99.90;;;;;;5083791;28;20468;-65
2021/04/01 07:13:19;;;;;;;49.10;27.57;;;14.60;99.90;;;;;;5103051;28;20778;-65
2021/04/01 07:15:49;;;;;;;47.13;25.90;;;14.80;99.90;;;;;;5102172;28;20854;-65
2021/04/01 07:18:28;;;;;;;57.70;30.43;;;15.00;99.90;;;;;;5093394;28;20840;-64
2021/04/01 07:21:18;;;;;;;50.77;28.47;;;15.20;99.90;;;;;;5073315;28;20829;-65
2021/04/01 07:35:27;;;;;;;61.70;34.27;;;16.80;99.90;;;;;;5085440;28;20418;-64
2021/04/01 07:46:43;;;;;;;56.43;33.10;;;19.20;99.90;;;;;;5072324;28;20978;-65
2021/04/01 07:49:19;;;;;;;55.13;32.63;;;19.70;99.90;;;;;;5072891;28;20459;-64
2021/04/01 07:52:01;;;;;;;54.77;33.10;;;20.30;99.90;;;;;;5080954;28;20447;-63
2021/04/01 07:54:38;;;;;;;54.97;31.53;;;21.20;99.90;;;;;;5091696;28;20445;-64
2021/04/01 07:57:19;;;;;;;62.93;34.47;;;22.00;99.90;;;;;;5093265;28;20458;-67
2021/04/01 08:02:34;;;;;;;56.53;33.90;;;22.60;99.90;;;;;;5100418;28;20516;-66
2021/04/01 08:05:02;;;;;;;53.90;33.67;;;22.80;99.90;;;;;;5113133;28;20815;-65
2021/04/01 08:07:32;;;;;;;59.80;35.27;;;23.20;99.80;;;;;;5098584;28;20452;-66
2021/04/01 08:10:04;;;;;;;64.40;36.20;;;23.40;97.40;;;;;;5113504;28;20484;-65
2021/04/01 08:12:40;;;;;;;57.20;36.23;;;23.90;96.80;;;;;;5090625;28;20442;-66
2021/04/01 08:15:10;;;;;;;56.90;34.90;;;24.40;95.10;;;;;;5096317;28;20449;-64
2021/04/01 08:17:45;;;;;;;63.30;35.67;;;25.00;94.10;;;;;;5097806;28;20445;-64
2021/04/01 08:20:18;;;;;;;54.27;34.47;;;25.50;92.30;;;;;;5111230;28;20448;-66
2021/04/01 08:22:54;;;;;;;55.90;35.30;;;25.70;91.60;;;;;;5090804;28;20516;-66
2021/04/01 08:25:24;;;;;;;61.20;38.70;;;26.50;89.70;;;;;;5095486;28;20449;-65
2021/04/01 08:28:12;;;;;;;62.40;42.00;;;26.90;84.40;;;;;;5088300;28;20959;-64
2021/04/01 08:33:55;;;;;;;60.47;39.83;;;26.60;82.10;;;;;;5099162;28;20809;-65
2021/04/01 08:36:23;;;;;;;63.90;42.10;;;26.70;80.00;;;;;;5091954;28;20445;-65
2021/04/01 08:38:50;;;;;;;60.40;36.60;;;26.10;77.00;;;;;;5088104;28;20600;-65
2021/04/01 08:41:39;;;;;;;60.27;38.00;;;27.10;77.70;;;;;;5073997;28;20450;-64
2021/04/01 08:44:30;;;;;;;62.53;39.43;;;28.00;76.90;;;;;;5071614;28;20944;-65
2021/04/01 08:47:17;;;;;;;68.97;44.73;;;28.80;76.50;;;;;;5070682;28;21013;-65
2021/04/01 08:49:48;;;;;;;59.53;39.43;;;28.50;69.20;;;;;;5075001;28;20457;-65
2021/04/01 08:52:55;;;;;;;63.17;39.90;;;28.50;69.50;;;;;;5086378;28;20822;-64
2021/04/01 08:55:32;;;;;;;64.30;40.47;;;29.00;69.30;;;;;;5079930;28;20479;-66
2021/04/01 08:58:04;;;;;;;63.30;40.70;;;30.00;65.90;;;;;;5083263;28;20483;-65
2021/04/01 09:00:32;;;;;;;62.63;40.10;;;30.20;66.30;;;;;;5083704;28;20446;-64
2021/04/01 09:02:59;;;;;;;65.37;41.70;;;30.10;63.40;;;;;;5092022;28;20527;-65
2021/04/01 09:05:26;;;;;;;65.07;41.63;;;30.90;59.40;;;;;;5080848;28;20792;-66
2021/04/01 09:07:58;;;;;;;68.03;43.37;;;31.50;59.50;;;;;;5071900;28;20613;-65
2021/04/01 09:10:26;;;;;;;63.50;42.07;;;31.80;56.90;;;;;;5082713;28;20454;-65
2021/04/01 09:12:55;;;;;;;68.23;42.87;;;29.70;57.60;;;;;;5070754;28;20462;-65
2021/04/01 09:15:28;;;;;;;65.73;43.37;;;29.80;58.20;;;;;;5084105;28;20529;-66
2021/04/01 09:17:55;;;;;;;58.17;38.00;;;29.40;55.80;;;;;;5091878;28;20860;-64
2021/04/01 09:20:23;;;;;;;63.30;42.13;;;30.90;56.00;;;;;;5079556;28;20515;-65
2021/04/01 09:22:51;;;;;;;59.70;41.13;;;30.40;54.10;;;;;;5071721;28;20454;-65
2021/04/01 09:25:19;;;;;;;60.33;40.90;;;31.20;57.90;;;;;;5083446;28;20456;-64
2021/04/01 09:27:52;;;;;;;57.67;40.07;;;32.60;55.00;;;;;;5091088;28;20455;-65
2021/04/01 09:30:21;;;;;;;61.83;42.63;;;33.50;52.80;;;;;;5081641;28;20448;-65
2021/04/01 09:32:51;;;;;;;63.47;43.10;;;33.60;51.20;;;;;;5071830;28;20455;-63
2021/04/01 09:35:19;;;;;;;65.20;42.33;;;33.10;52.60;;;;;;5083537;28;20442;-64
2021/04/01 09:37:51;;;;;;;62.03;39.53;;;32.90;49.80;;;;;;5090565;28;20456;-63
2021/04/01 09:40:19;;;;;;;55.90;41.93;;;33.60;51.20;;;;;;5086310;28;20528;-63
2021/04/01 09:42:46;;;;;;;62.60;41.50;;;34.40;49.50;;;;;;5097293;28;20528;-63
2021/04/01 09:45:27;;;;;;;55.77;37.63;;;34.00;50.00;;;;;;5103930;28;20441;-64
2021/04/01 09:47:57;;;;;;;50.47;37.43;;;34.30;46.90;;;;;;5101105;28;20442;-64
2021/04/01 09:50:25;;;;;;;52.67;38.10;;;34.40;49.60;;;;;;5108775;28;20808;-64
2021/04/01 09:52:57;;;;;;;53.20;40.00;;;34.50;46.90;;;;;;5106648;28;20960;-64
2021/04/01 09:55:23;;;;;;;45.90;31.77;;;34.40;46.20;;;;;;5085859;28;20545;-63
2021/04/01 09:57:52;;;;;;;54.53;36.93;;;34.10;45.50;;;;;;5096929;28;20456;-64
2021/04/01 10:00:26;;;;;;;49.73;34.90;;;34.10;46.00;;;;;;5100734;28;20450;-63
2021/04/01 10:03:04;;;;;;;49.60;36.20;;;35.40;45.70;;;;;;5115844;28;20524;-64
2021/04/01 10:05:40;;;;;;;51.03;33.60;;;34.30;46.10;;;;;;5096858;28;20503;-64
2021/04/01 10:08:09;;;;;;;48.60;35.63;;;33.70;46.30;;;;;;5090212;28;20458;-64
2021/04/01 10:10:39;;;;;;;53.20;36.10;;;33.60;45.70;;;;;;5094340;28;20450;-64
2021/04/01 10:13:19;;;;;;;51.00;34.63;;;33.60;45.60;;;;;;5100720;28;20445;-64
2021/04/01 10:15:46;;;;;;;54.33;35.53;;;33.70;45.90;;;;;;5101723;28;20454;-64
2021/04/01 10:18:16;;;;;;;49.00;33.90;;;34.30;45.20;;;;;;5109784;28;20536;-65
2021/04/01 10:20:52;;;;;;;50.23;34.70;;;35.30;44.30;;;;;;5100165;28;20494;-65
2021/04/01 10:23:19;;;;;;;43.53;30.13;;;35.50;43.50;;;;;;5106462;28;20537;-64
2021/04/01 10:25:50;;;;;;;46.70;31.77;;;35.70;44.60;;;;;;5094028;28;20460;-63
2021/04/01 10:28:32;;;;;;;47.47;31.67;;;35.30;43.30;;;;;;5091718;28;20892;-66
2021/04/01 10:31:08;;;;;;;43.57;30.53;;;34.90;43.50;;;;;;5092375;28;20539;-63
2021/04/01 10:33:52;;;;;;;47.80;32.50;;;35.90;44.60;;;;;;5084079;28;20461;-64
2021/04/01 10:36:26;;;;;;;48.10;34.57;;;36.40;44.10;;;;;;5092980;28;21065;-64
2021/04/01 10:38:54;;;;;;;49.07;34.37;;;37.00;43.90;;;;;;5084785;28;20481;-63
2021/04/01 10:41:21;;;;;;;47.63;32.00;;;36.40;42.90;;;;;;5084792;28;20446;-64
2021/04/01 10:43:59;;;;;;;51.57;36.77;;;37.40;42.60;;;;;;5091496;28;20481;-64
2021/04/01 10:46:26;;;;;;;46.47;33.87;;;37.90;41.20;;;;;;5089568;28;20536;-64
2021/04/01 10:48:56;;;;;;;42.93;32.00;;;38.00;41.40;;;;;;5091493;28;20562;-65
2021/04/01 10:51:24;;;;;;;46.77;33.53;;;39.00;42.40;;;;;;5091588;28;20444;-66
2021/04/01 10:53:51;;;;;;;52.70;37.70;;;39.30;40.60;;;;;;5095865;28;20446;-66
2021/04/01 10:56:17;;;;;;;41.93;31.47;;;38.10;40.20;;;;;;5083563;28;20463;-64
2021/04/01 10:58:51;;;;;;;38.00;30.10;;;38.00;40.60;;;;;;5080777;28;20484;-66
2021/04/01 11:01:20;;;;;;;46.47;33.60;;;38.10;40.40;;;;;;5091342;28;20524;-66
2021/04/01 11:03:50;;;;;;;44.23;34.03;;;37.80;41.10;;;;;;5097014;28;20863;-66
2021/04/01 11:06:17;;;;;;;44.13;31.70;;;38.30;41.50;;;;;;5112201;28;20528;-65
2021/04/01 11:08:46;;;;;;;40.87;31.00;;;39.20;44.60;;;;;;5113777;28;20476;-62
2021/04/01 11:11:13;;;;;;;41.87;31.53;;;38.30;39.80;;;;;;5113746;28;20524;-63
2021/04/01 11:13:42;;;;;;;46.03;33.43;;;37.90;42.50;;;;;;5089234;28;20447;-63
2021/04/01 11:16:10;;;;;;;47.63;34.33;;;36.90;42.50;;;;;;5073263;28;20485;-63
2021/04/01 11:18:39;;;;;;;45.00;34.00;;;37.30;43.50;;;;;;5100492;28;20852;-64
2021/04/01 11:21:06;;;;;;;51.73;37.20;;;37.50;41.10;;;;;;5115671;28;20450;-62
2021/04/01 11:23:35;;;;;;;47.07;35.23;;;38.10;41.00;;;;;;5079429;28;20451;-64
2021/04/01 11:26:03;;;;;;;46.17;35.07;;;38.70;42.40;;;;;;5074533;28;20521;-63
2021/04/01 11:28:34;;;;;;;42.57;35.20;;;39.00;39.90;;;;;;5092421;28;21033;-63
2021/04/01 11:31:01;;;;;;;45.87;34.90;;;39.80;43.50;;;;;;5092087;28;20446;-63
2021/04/01 11:33:28;;;;;;;49.37;37.70;;;39.50;39.90;;;;;;5072528;28;20458;-63
2021/04/01 11:36:07;;;;;;;47.63;35.40;;;39.50;40.20;;;;;;5082473;28;20530;-64
2021/04/01 11:38:42;;;;;;;44.67;35.73;;;38.90;39.70;;;;;;5101347;28;20918;-67
2021/04/01 11:41:13;;;;;;;47.27;38.40;;;38.50;40.40;;;;;;5105933;28;20462;-64
2021/04/01 11:43:40;;;;;;;45.97;36.13;;;39.40;39.40;;;;;;5072550;28;20788;-65
2021/04/01 11:46:15;;;;;;;41.37;36.87;;;39.20;39.60;;;;;;5082942;28;20458;-64
2021/04/01 11:48:42;;;;;;;45.93;38.67;;;38.30;38.90;;;;;;5086634;28;20461;-64
2021/04/01 11:51:15;;;;;;;42.10;34.70;;;38.10;40.10;;;;;;5090405;28;20476;-64
2021/04/01 11:53:41;;;;;;;39.97;34.50;;;38.60;40.70;;;;;;5078596;28;20473;-65
2021/04/01 11:56:08;;;;;;;44.20;39.47;;;39.40;40.60;;;;;;5073992;28;20461;-64
2021/04/01 11:58:35;;;;;;;40.53;36.37;;;39.30;40.40;;;;;;5090163;28;20486;-63
2021/04/01 12:01:08;;;;;;;40.30;36.13;;;39.70;41.40;;;;;;5086384;28;20573;-66
2021/04/01 12:03:50;;;;;;;47.10;40.90;;;39.00;40.80;;;;;;5074551;28;20458;-65
2021/04/01 12:06:17;;;;;;;49.23;43.87;;;39.30;41.00;;;;;;5085659;28;20505;-63
2021/04/01 12:08:44;;;;;;;46.23;41.53;;;38.30;39.30;;;;;;5072299;28;20447;-63
2021/04/01 12:11:12;;;;;;;46.80;41.70;;;35.90;41.70;;;;;;5081782;28;20525;-65
2021/04/01 12:13:38;;;;;;;41.87;37.37;;;35.10;42.10;;;;;;5097195;28;20545;-63
2021/04/01 12:16:15;;;;;;;51.07;45.47;;;35.30;42.60;;;;;;5101997;28;20451;-64
2021/04/01 12:18:42;;;;;;;46.40;38.33;;;33.80;42.30;;;;;;5091292;28;20560;-63
2021/04/01 12:21:09;;;;;;;47.90;41.67;;;32.80;43.80;;;;;;5102434;28;20446;-65
2021/04/01 12:23:45;;;;;;;46.63;41.20;;;33.90;45.20;;;;;;5100063;28;20840;-63
2021/04/01 12:26:13;;;;;;;54.10;48.20;;;35.20;44.70;;;;;;5103774;28;20445;-64
2021/04/01 12:28:40;;;;;;;51.37;45.80;;;35.00;42.40;;;;;;5088372;28;20840;-63
2021/04/01 12:31:14;;;;;;;47.53;42.27;;;35.30;42.00;;;;;;5109440;28;20453;-63
2021/04/01 12:33:50;;;;;;;49.07;43.97;;;35.60;43.30;;;;;;5083598;28;20459;-63
2021/04/01 12:36:17;;;;;;;49.63;44.53;;;35.60;42.60;;;;;;5095564;28;20449;-63
2021/04/01 12:38:46;;;;;;;54.17;48.43;;;33.90;42.20;;;;;;5100609;28;21074;-64
2021/04/01 12:41:25;;;;;;;64.50;56.57;;;33.40;42.50;;;;;;5111660;28;20437;-63
2021/04/01 12:43:52;;;;;;;63.63;53.40;;;32.50;43.90;;;;;;5091911;28;20961;-64
2021/04/01 12:46:18;;;;;;;53.10;46.43;;;31.50;44.20;;;;;;5083583;28;20450;-63
2021/04/01 12:48:48;;;;;;;48.33;42.23;;;32.20;45.30;;;;;;5082192;28;21015;-66
2021/04/01 12:51:18;;;;;;;48.57;43.27;;;33.60;45.50;;;;;;5078451;28;20485;-66
2021/04/01 12:53:45;;;;;;;48.20;42.97;;;34.20;43.30;;;;;;5077465;28;20455;-63
2021/04/01 12:56:14;;;;;;;51.13;43.83;;;33.90;43.00;;;;;;5090357;28;20975;-63
2021/04/01 12:58:44;;;;;;;42.60;36.07;;;33.60;42.70;;;;;;5091930;28;20486;-63
2021/04/01 13:01:14;;;;;;;40.60;34.80;;;33.70;42.50;;;;;;5091344;28;20442;-63
2021/04/01 13:03:41;;;;;;;38.23;33.27;;;33.10;42.50;;;;;;5077442;28;21220;-63
2021/04/01 13:06:11;;;;;;;34.13;30.43;;;31.80;42.00;;;;;;5089534;28;20981;-64
2021/04/01 13:11:25;;;;;;;36.10;29.33;;;31.30;45.00;;;;;;5091437;28;20431;-66
2021/04/01 13:13:54;;;;;;;30.77;25.00;;;30.10;43.60;;;;;;5091858;28;20541;-63
2021/04/01 13:16:21;;;;;;;30.50;24.93;;;30.60;45.00;;;;;;5091074;28;20473;-63
2021/04/01 13:18:47;;;;;;;25.27;20.00;;;31.90;44.10;;;;;;5091290;28;21051;-63
2021/04/01 13:24:03;;;;;;;26.10;18.60;;;32.60;44.90;;;;;;5091395;28;20443;-63
2021/04/01 13:26:31;;;;;;;21.37;16.20;;;33.30;42.60;;;;;;5095646;28;20970;-64
2021/04/01 13:28:59;;;;;;;22.30;17.30;;;33.90;43.60;;;;;;5096483;28;20480;-68
2021/04/01 13:31:34;;;;;;;20.93;15.30;;;34.20;41.10;;;;;;5091254;28;20450;-64
2021/04/01 13:34:05;;;;;;;17.80;14.00;;;34.20;40.80;;;;;;5075786;28;20500;-64